createdAt,value
2019-03-23T00:02:14.953Z,7.10
2019-03-23T00:04:43.510Z,8.03
2019-03-23T00:07:12.339Z,8.10
2019-03-23T00:09:40.904Z,7.47
2019-03-23T00:12:09.530Z,7.20
2019-03-23T00:14:38.161Z,7.37
2019-03-23T00:17:06.798Z,7.67
2019-03-23T00:19:35.358Z,7.17
2019-03-23T00:22:04.090Z,7.60
2019-03-23T00:24:32.646Z,7.93
2019-03-23T00:27:01.201Z,8.67
2019-03-23T00:29:29.793Z,8.27
2019-03-23T00:31:58.412Z,8.43
2019-03-23T00:34:26.977Z,8.07
2019-03-23T00:36:55.701Z,8.20
2019-03-23T00:39:24.273Z,9.03
2019-03-23T00:41:52.906Z,9.30
2019-03-23T00:44:22.010Z,9.43
2019-03-23T00:46:50.634Z,9.40
2019-03-23T00:49:19.197Z,8.97
2019-03-23T00:51:47.788Z,9.97
2019-03-23T00:54:16.481Z,9.57
2019-03-23T00:56:45.184Z,9.57
2019-03-23T00:59:14.209Z,9.30
2019-03-23T01:01:42.842Z,8.73
2019-03-23T01:04:11.397Z,8.17
2019-03-23T01:06:39.994Z,8.70
2019-03-23T01:09:08.717Z,9.50
2019-03-23T01:11:37.278Z,9.30
2019-03-23T01:14:06.010Z,8.00
2019-03-23T01:16:34.633Z,9.20
2019-03-23T01:19:03.211Z,8.77
2019-03-23T01:21:31.793Z,9.13
2019-03-23T01:24:00.414Z,8.37
2019-03-23T01:26:28.965Z,8.30
2019-03-23T01:28:58.547Z,8.70
2019-03-23T01:31:27.104Z,8.83
2019-03-23T01:33:55.721Z,8.80
2019-03-23T01:36:24.318Z,9.30
2019-03-23T01:38:52.947Z,9.13
2019-03-23T01:41:21.578Z,9.70
2019-03-23T01:43:50.344Z,9.27
2019-03-23T01:46:18.978Z,8.60
2019-03-23T01:48:47.543Z,9.67
2019-03-23T01:51:16.377Z,8.53
2019-03-23T01:53:44.941Z,8.90
2019-03-23T01:56:13.573Z,8.73
2019-03-23T01:58:42.341Z,8.60
2019-03-23T02:01:10.973Z,8.13
2019-03-23T02:03:39.561Z,8.53
2019-03-23T02:06:08.157Z,8.47
2019-03-23T02:08:36.713Z,8.47
2019-03-23T02:11:05.422Z,8.03
2019-03-23T02:13:34.374Z,8.57
2019-03-23T02:16:03.009Z,8.43
2019-03-23T02:18:31.565Z,8.27
2019-03-23T02:21:00.234Z,8.90
2019-03-23T02:23:28.785Z,7.93
2019-03-23T02:25:57.431Z,8.50
2019-03-23T02:28:26.027Z,7.80
2019-03-23T02:30:54.659Z,8.83
2019-03-23T02:33:23.290Z,8.60
2019-03-23T02:35:51.890Z,8.87
2019-03-23T02:38:21.229Z,9.13
2019-03-23T02:40:49.789Z,9.13
2019-03-23T02:43:18.334Z,9.33
2019-03-23T02:45:46.924Z,9.60
2019-03-23T02:48:15.552Z,9.43
2019-03-23T02:50:44.189Z,9.60
2019-03-23T02:53:12.763Z,10.17
2019-03-23T02:55:41.322Z,10.17
2019-03-23T02:58:09.915Z,10.40
2019-03-23T03:00:38.549Z,9.00
2019-03-23T03:03:07.232Z,9.60
2019-03-23T03:05:35.779Z,10.13
2019-03-23T03:08:04.346Z,10.00
2019-03-23T03:10:39.664Z,9.83
2019-03-23T03:13:08.758Z,10.07
2019-03-23T03:15:37.385Z,9.93
2019-03-23T03:18:07.113Z,8.90
2019-03-23T03:20:35.747Z,10.00
2019-03-23T03:23:04.386Z,8.93
2019-03-23T03:25:32.970Z,9.47
2019-03-23T03:28:01.540Z,9.37
2019-03-23T03:30:30.170Z,9.53
2019-03-23T03:32:58.894Z,9.00
2019-03-23T03:35:27.516Z,9.80
2019-03-23T03:37:57.257Z,9.60
2019-03-23T03:40:26.138Z,9.87
2019-03-23T03:42:54.770Z,10.03
2019-03-23T03:45:28.438Z,9.63
2019-03-23T03:47:57.492Z,10.90
2019-03-23T03:50:26.090Z,10.63
2019-03-23T03:52:54.765Z,10.17
2019-03-23T03:55:23.399Z,9.97
2019-03-23T03:57:52.047Z,9.80
2019-03-23T04:00:20.731Z,10.33
2019-03-23T04:02:49.408Z,11.17
2019-03-23T04:05:19.013Z,10.87
2019-03-23T04:07:47.579Z,10.87
2019-03-23T04:10:16.207Z,9.97
2019-03-23T04:12:44.947Z,10.47
2019-03-23T04:15:13.746Z,10.17
2019-03-23T04:17:42.421Z,9.90
2019-03-23T04:22:40.017Z,10.83
2019-03-23T04:25:10.067Z,11.17
2019-03-23T04:27:38.636Z,10.60
2019-03-23T04:30:11.718Z,11.10
2019-03-23T04:32:40.663Z,10.80
2019-03-23T04:35:10.530Z,11.03
2019-03-23T04:37:39.288Z,10.07
2019-03-23T04:40:10.443Z,11.07
2019-03-23T04:42:39.115Z,12.33
2019-03-23T04:45:09.509Z,10.27
2019-03-23T04:47:38.218Z,10.90
2019-03-23T04:50:11.354Z,11.53
2019-03-23T04:52:40.015Z,11.13
2019-03-23T04:55:13.083Z,11.23
2019-03-23T04:57:42.194Z,11.53
2019-03-23T05:00:16.247Z,11.60
2019-03-23T05:02:44.982Z,11.17
2019-03-23T05:05:13.887Z,10.67
2019-03-23T05:07:42.560Z,12.30
2019-03-23T05:10:12.663Z,13.27
2019-03-23T05:12:41.379Z,11.77
2019-03-23T05:15:10.311Z,13.00
2019-03-23T05:17:39.076Z,11.80
2019-03-23T05:20:09.738Z,13.03
2019-03-23T05:22:38.442Z,12.33
2019-03-23T05:25:09.238Z,12.97
2019-03-23T05:27:37.991Z,13.40
2019-03-23T05:30:08.170Z,13.53
2019-03-23T05:32:36.887Z,13.50
2019-03-23T05:35:06.999Z,13.30
2019-03-23T05:37:35.634Z,13.13
2019-03-23T05:40:06.678Z,13.00
2019-03-23T05:42:35.587Z,13.10
2019-03-23T05:45:05.822Z,14.07
2019-03-23T05:47:34.486Z,13.53
2019-03-23T05:50:03.471Z,12.83
2019-03-23T05:52:32.216Z,12.43
2019-03-23T05:55:00.863Z,12.43
2019-03-23T05:57:29.561Z,12.50
2019-03-23T05:59:58.127Z,12.03
2019-03-23T06:02:26.848Z,12.30
2019-03-23T06:04:55.430Z,14.23
2019-03-23T06:07:24.076Z,13.50
2019-03-23T06:09:52.739Z,12.77
2019-03-23T06:12:21.383Z,13.33
2019-03-23T06:14:49.973Z,12.77
2019-03-23T06:17:18.622Z,12.73
2019-03-23T06:19:47.194Z,12.73
2019-03-23T06:22:15.794Z,11.93
2019-03-23T06:24:44.431Z,12.70
2019-03-23T06:27:13.012Z,12.13
2019-03-23T06:29:41.690Z,11.73
2019-03-23T06:32:10.327Z,11.10
2019-03-23T06:34:39.002Z,11.67
2019-03-23T06:37:07.710Z,11.93
2019-03-23T06:39:36.435Z,11.80
2019-03-23T06:42:05.196Z,11.97
2019-03-23T06:44:33.933Z,11.10
2019-03-23T06:47:02.713Z,10.47
2019-03-23T06:49:31.446Z,10.43
2019-03-23T06:52:00.118Z,24.53
2019-03-23T06:54:28.873Z,11.20
2019-03-23T06:56:57.514Z,10.70
2019-03-23T06:59:26.127Z,10.60
2019-03-23T07:01:54.724Z,10.47
2019-03-23T07:04:23.258Z,10.77
2019-03-23T07:06:51.934Z,10.50
2019-03-23T07:09:20.495Z,10.97
2019-03-23T07:11:49.171Z,10.73
2019-03-23T07:14:17.740Z,11.53
2019-03-23T07:16:46.375Z,10.50
2019-03-23T07:19:15.046Z,9.73
2019-03-23T07:21:43.670Z,9.80
2019-03-23T07:24:12.638Z,9.77
2019-03-23T07:26:41.290Z,10.50
2019-03-23T07:29:09.940Z,10.23
2019-03-23T07:31:38.540Z,9.33
2019-03-23T07:34:07.105Z,9.57
2019-03-23T07:36:35.767Z,9.53
2019-03-23T07:39:06.550Z,9.77
2019-03-23T07:41:35.117Z,10.43
2019-03-23T07:44:03.810Z,9.80
2019-03-23T07:46:32.548Z,9.97
2019-03-23T07:49:01.379Z,10.77
2019-03-23T07:51:30.136Z,10.57
2019-03-23T07:53:58.801Z,10.83
2019-03-23T07:56:27.489Z,10.30
2019-03-23T07:58:56.121Z,10.20
2019-03-23T08:01:25.177Z,10.17
2019-03-23T08:03:53.753Z,10.20
2019-03-23T08:06:22.325Z,11.50
2019-03-23T08:08:50.915Z,11.43
2019-03-23T08:11:19.563Z,10.37
2019-03-23T08:13:48.227Z,10.00
2019-03-23T08:16:16.859Z,10.70
2019-03-23T08:18:45.541Z,11.17
2019-03-23T08:21:14.191Z,11.50
2019-03-23T08:23:42.920Z,10.23
2019-03-23T08:26:11.598Z,13.17
2019-03-23T08:28:40.170Z,13.93
2019-03-23T08:31:08.887Z,13.97
2019-03-23T08:33:37.462Z,14.23
2019-03-23T08:36:06.105Z,14.73
2019-03-23T08:38:34.710Z,13.30
2019-03-23T08:41:03.376Z,14.03
2019-03-23T08:43:31.969Z,14.17
2019-03-23T08:46:00.535Z,13.83
2019-03-23T08:48:29.174Z,14.93
2019-03-23T08:50:57.769Z,14.07
2019-03-23T08:53:26.418Z,14.17
2019-03-23T08:55:55.094Z,14.30
2019-03-23T08:58:30.451Z,13.70
2019-03-23T09:00:59.809Z,14.10
2019-03-23T09:03:28.450Z,13.80
2019-03-23T09:05:57.163Z,13.70
2019-03-23T09:08:25.909Z,13.70
2019-03-23T09:10:54.548Z,13.60
2019-03-23T09:13:23.316Z,13.77
2019-03-23T09:15:52.035Z,13.60
2019-03-23T09:18:20.748Z,13.67
2019-03-23T09:20:49.700Z,14.70
2019-03-23T09:23:18.433Z,13.77
2019-03-23T09:25:47.341Z,14.30
2019-03-23T09:28:16.080Z,14.23
2019-03-23T09:30:44.869Z,15.08
2019-03-23T09:33:13.767Z,14.33
2019-03-23T09:35:42.423Z,14.83
2019-03-23T09:38:11.110Z,14.95
2019-03-23T09:40:39.755Z,14.28
2019-03-23T09:43:08.419Z,14.95
2019-03-23T09:45:37.176Z,14.45
2019-03-23T09:48:05.886Z,15.60
2019-03-23T09:50:34.567Z,15.98
2019-03-23T09:53:03.136Z,16.65
2019-03-23T09:55:31.782Z,16.52
2019-03-23T09:58:00.545Z,15.35
2019-03-23T10:00:29.200Z,17.07
2019-03-23T10:02:57.887Z,15.85
2019-03-23T10:05:26.574Z,15.45
2019-03-23T10:07:55.394Z,16.10
2019-03-23T10:10:24.119Z,16.42
2019-03-23T10:12:52.828Z,17.57
2019-03-23T10:15:22.464Z,15.80
2019-03-23T10:17:51.054Z,19.23
2019-03-23T10:20:19.738Z,17.45
2019-03-23T10:22:48.381Z,16.50
2019-03-23T10:25:17.088Z,17.00
2019-03-23T10:27:45.832Z,17.85
2019-03-23T10:30:14.745Z,18.12
2019-03-23T10:32:43.318Z,17.05
2019-03-23T10:35:12.171Z,17.85
2019-03-23T10:37:40.890Z,18.35
2019-03-23T10:40:11.406Z,17.12
2019-03-23T10:42:40.146Z,17.87
2019-03-23T10:45:09.969Z,19.12
2019-03-23T10:47:38.787Z,19.05
2019-03-23T10:50:08.019Z,19.70
2019-03-23T10:52:36.733Z,18.77
2019-03-23T10:55:08.295Z,19.82
2019-03-23T10:57:37.044Z,19.00
2019-03-23T11:00:11.776Z,19.60
2019-03-23T11:02:40.484Z,19.57
2019-03-23T11:05:09.910Z,18.90
2019-03-23T11:07:38.548Z,19.75
2019-03-23T11:10:09.436Z,19.85
2019-03-23T11:12:38.644Z,20.50
2019-03-23T11:15:09.323Z,18.73
2019-03-23T11:17:38.034Z,19.10
2019-03-23T11:20:09.154Z,20.27
2019-03-23T11:22:37.803Z,19.17
2019-03-23T11:25:07.829Z,20.45
2019-03-23T11:27:36.600Z,20.02
2019-03-23T11:30:13.553Z,20.08
2019-03-23T11:32:42.398Z,19.57
2019-03-23T11:35:11.315Z,19.23
2019-03-23T11:37:40.129Z,20.08
2019-03-23T11:40:10.914Z,20.88
2019-03-23T11:42:49.400Z,18.92
2019-03-23T11:45:11.701Z,20.23
2019-03-23T11:47:40.813Z,20.12
2019-03-23T11:50:10.229Z,19.82
2019-03-23T11:52:39.442Z,21.00
2019-03-23T11:55:09.434Z,20.65
2019-03-23T11:57:38.146Z,20.95
2019-03-23T12:00:09.663Z,20.15
2019-03-23T12:02:38.402Z,20.17
2019-03-23T12:05:10.630Z,18.92
2019-03-23T12:07:39.335Z,20.17
2019-03-23T12:10:13.533Z,20.43
2019-03-23T12:12:42.283Z,19.87
2019-03-23T12:15:12.609Z,20.97
2019-03-23T12:17:41.355Z,20.08
2019-03-23T12:20:10.967Z,20.85
2019-03-23T12:22:39.686Z,20.62
2019-03-23T12:25:08.849Z,20.60
2019-03-23T12:27:37.493Z,20.08
2019-03-23T12:30:08.975Z,21.62
2019-03-23T12:32:37.671Z,19.87
2019-03-23T12:35:07.988Z,22.22
2019-03-23T12:37:36.626Z,21.87
2019-03-23T12:40:07.171Z,19.25
2019-03-23T12:42:35.893Z,21.75
2019-03-23T12:45:06.608Z,20.70
2019-03-23T12:47:35.807Z,21.97
2019-03-23T12:50:09.443Z,20.72
2019-03-23T12:52:38.159Z,21.62
2019-03-23T12:55:10.134Z,21.55
2019-03-23T12:57:38.791Z,20.80
2019-03-23T13:00:10.505Z,20.48
2019-03-23T13:02:39.190Z,20.72
2019-03-23T13:05:08.306Z,19.75
2019-03-23T13:07:37.045Z,21.02
2019-03-23T13:10:08.138Z,21.87
2019-03-23T13:12:36.855Z,20.97
2019-03-23T13:15:07.026Z,19.60
2019-03-23T13:17:35.682Z,21.40
2019-03-23T13:20:08.578Z,23.80
2019-03-23T13:22:36.485Z,20.40
2019-03-23T13:25:09.501Z,20.80
2019-03-23T13:27:38.186Z,20.45
2019-03-23T13:30:09.847Z,20.70
2019-03-23T13:32:38.603Z,20.08
2019-03-23T13:35:07.562Z,21.12
2019-03-23T13:37:36.283Z,21.07
2019-03-23T13:40:07.092Z,21.17
2019-03-23T13:42:35.810Z,20.55
2019-03-23T13:45:06.951Z,19.92
2019-03-23T13:47:35.742Z,19.87
2019-03-23T13:50:06.666Z,20.45
2019-03-23T13:52:35.406Z,21.77
2019-03-23T13:55:05.538Z,20.68
2019-03-23T13:57:34.314Z,20.90
2019-03-23T14:00:04.264Z,20.75
2019-03-23T14:02:32.979Z,20.90
2019-03-23T14:05:01.638Z,20.90
2019-03-23T14:07:30.236Z,20.12
2019-03-23T14:09:58.865Z,20.95
2019-03-23T14:12:27.507Z,20.62
2019-03-23T14:14:56.222Z,19.17
2019-03-23T14:17:24.931Z,20.10
2019-03-23T14:19:53.691Z,19.73
2019-03-23T14:22:22.444Z,19.75
2019-03-23T14:24:51.100Z,19.87
2019-03-23T14:27:19.657Z,19.70
2019-03-23T14:29:48.334Z,20.88
2019-03-23T14:32:16.926Z,22.10
2019-03-23T14:34:45.676Z,21.52
2019-03-23T14:37:14.394Z,21.02
2019-03-23T14:39:43.039Z,20.80
2019-03-23T14:42:11.779Z,21.05
2019-03-23T14:44:40.573Z,20.90
2019-03-23T14:47:09.310Z,20.88
2019-03-23T14:49:38.019Z,20.50
2019-03-23T14:52:06.662Z,21.20
2019-03-23T14:54:35.339Z,19.82
2019-03-23T14:57:04.055Z,21.48
2019-03-23T14:59:33.030Z,22.40
2019-03-23T15:02:01.615Z,22.82
2019-03-23T15:04:30.186Z,21.27
2019-03-23T15:06:58.934Z,22.80
2019-03-23T15:09:27.570Z,22.25
2019-03-23T15:11:56.281Z,21.80
2019-03-23T15:14:24.971Z,23.25
2019-03-23T15:16:53.664Z,23.07
2019-03-23T15:19:22.380Z,23.83
2019-03-23T15:21:50.974Z,23.05
2019-03-23T15:24:20.018Z,22.75
2019-03-23T15:26:48.662Z,22.05
2019-03-23T15:29:17.310Z,23.77
2019-03-23T15:31:45.981Z,23.32
2019-03-23T15:34:14.553Z,24.15
2019-03-23T15:36:43.321Z,23.85
2019-03-23T15:39:11.897Z,25.50
2019-03-23T15:41:40.542Z,24.07
2019-03-23T15:44:09.223Z,23.25
2019-03-23T15:46:37.945Z,24.25
2019-03-23T15:49:06.693Z,26.02
2019-03-23T15:51:35.367Z,26.55
2019-03-23T15:54:04.117Z,27.22
2019-03-23T15:56:32.801Z,26.68
2019-03-23T15:59:01.482Z,25.30
2019-03-23T16:01:30.324Z,27.73
2019-03-23T16:03:59.119Z,26.73
2019-03-23T16:06:27.763Z,25.88
2019-03-23T16:08:56.367Z,26.07
2019-03-23T16:14:12.771Z,26.25
2019-03-23T16:16:41.353Z,25.65
2019-03-23T16:19:09.994Z,24.23
2019-03-23T16:21:38.739Z,25.08
2019-03-23T16:24:07.396Z,24.82
2019-03-23T16:26:36.257Z,26.20
2019-03-23T16:29:04.984Z,25.23
2019-03-23T16:31:33.572Z,25.95
2019-03-23T16:34:02.240Z,25.17
2019-03-23T16:36:30.883Z,24.90
2019-03-23T16:38:59.980Z,25.53
2019-03-23T16:41:28.662Z,25.13
2019-03-23T16:43:57.198Z,24.57
2019-03-23T16:46:25.948Z,21.93
2019-03-23T16:48:54.667Z,22.90
2019-03-23T16:51:23.411Z,23.70
2019-03-23T16:53:52.053Z,22.47
2019-03-23T16:56:20.695Z,21.93
2019-03-23T16:58:49.509Z,22.90
2019-03-23T17:01:18.235Z,21.87
2019-03-23T17:03:46.907Z,21.70
2019-03-23T17:06:15.543Z,23.83
2019-03-23T17:08:44.303Z,22.20
2019-03-23T17:11:12.934Z,22.13
2019-03-23T17:13:41.672Z,22.13
2019-03-23T17:16:10.360Z,21.63
2019-03-23T17:18:39.045Z,21.90
2019-03-23T17:21:08.188Z,21.77
2019-03-23T17:23:36.842Z,21.70
2019-03-23T17:26:05.531Z,21.63
2019-03-23T17:28:34.212Z,20.53
2019-03-23T17:31:02.859Z,21.23
2019-03-23T17:33:31.631Z,21.37
2019-03-23T17:36:00.202Z,21.77
2019-03-23T17:38:28.819Z,21.00
2019-03-23T17:40:57.490Z,20.93
2019-03-23T17:43:26.134Z,21.90
2019-03-23T17:45:54.806Z,20.57
2019-03-23T17:48:23.450Z,20.40
2019-03-23T17:50:52.033Z,22.13
2019-03-23T17:53:20.703Z,21.63
2019-03-23T17:55:49.449Z,21.87
2019-03-23T17:58:18.206Z,21.47
2019-03-23T18:00:46.996Z,22.17
2019-03-23T18:03:15.648Z,20.17
2019-03-23T18:05:44.496Z,19.53
2019-03-23T18:08:13.213Z,22.13
2019-03-23T18:10:41.958Z,19.67
2019-03-23T18:13:16.428Z,20.50
2019-03-23T18:15:41.046Z,20.43
2019-03-23T18:18:09.881Z,21.37
2019-03-23T18:20:38.649Z,20.83
2019-03-23T18:23:07.422Z,20.70
2019-03-23T18:25:35.988Z,19.57
2019-03-23T18:28:04.697Z,20.77
2019-03-23T18:30:38.614Z,21.03
2019-03-23T18:33:07.441Z,19.07
2019-03-23T18:35:36.187Z,20.03
2019-03-23T18:38:05.402Z,19.73
2019-03-23T18:40:34.524Z,19.77
2019-03-23T18:43:03.363Z,20.40
2019-03-23T18:45:32.273Z,19.27
2019-03-23T18:48:00.877Z,18.53
2019-03-23T18:50:29.594Z,19.07
2019-03-23T18:52:58.230Z,18.93
2019-03-23T18:55:27.145Z,20.03
2019-03-23T18:57:57.918Z,20.50
2019-03-23T19:00:34.905Z,19.60
2019-03-23T19:03:03.787Z,19.30
2019-03-23T19:05:32.427Z,20.13
2019-03-23T19:08:01.247Z,20.90
2019-03-23T19:10:29.888Z,20.83
2019-03-23T19:12:58.575Z,21.00
2019-03-23T19:15:27.292Z,22.83
2019-03-23T19:17:56.020Z,22.70
2019-03-23T19:20:24.693Z,22.50
2019-03-23T19:22:53.395Z,23.43
2019-03-23T19:25:22.534Z,24.23
2019-03-23T19:27:51.176Z,25.10
2019-03-23T19:30:19.983Z,25.27
2019-03-23T19:32:48.662Z,25.47
2019-03-23T19:35:17.226Z,26.03
2019-03-23T19:37:46.087Z,27.40
2019-03-23T19:40:14.902Z,23.07
2019-03-23T19:42:43.706Z,26.30
2019-03-23T19:45:12.468Z,25.97
2019-03-23T19:47:41.183Z,27.47
2019-03-23T19:50:10.175Z,27.03
2019-03-23T19:52:38.892Z,27.87
2019-03-23T19:55:08.404Z,27.57
2019-03-23T19:57:37.097Z,28.90
2019-03-23T20:00:10.350Z,26.77
2019-03-23T20:02:39.112Z,29.50
2019-03-23T20:05:08.173Z,29.63
2019-03-23T20:07:36.885Z,29.50
2019-03-23T20:10:08.435Z,29.13
2019-03-23T20:12:37.165Z,28.27
2019-03-23T20:15:09.280Z,28.90
2019-03-23T20:17:38.015Z,30.83
2019-03-23T20:20:09.214Z,27.87
2019-03-23T20:22:38.048Z,29.60
2019-03-23T20:25:07.277Z,29.63
2019-03-23T20:27:36.130Z,28.33
2019-03-23T20:30:07.310Z,29.70
2019-03-23T20:32:35.887Z,33.70
2019-03-23T20:35:06.443Z,30.27
2019-03-23T20:37:35.095Z,30.20
2019-03-23T20:40:06.048Z,28.73
2019-03-23T20:42:34.683Z,28.83
2019-03-23T20:45:04.602Z,27.50
2019-03-23T20:47:33.750Z,29.53
2019-03-23T20:50:02.660Z,29.37
2019-03-23T20:52:31.408Z,28.37
2019-03-23T20:55:00.127Z,27.70
2019-03-23T20:57:36.915Z,30.03
2019-03-23T20:59:59.018Z,28.90
2019-03-23T21:02:27.732Z,27.37
2019-03-23T21:04:56.370Z,29.63
2019-03-23T21:07:25.118Z,27.07
2019-03-23T21:09:53.839Z,28.10
2019-03-23T21:12:22.478Z,28.33
2019-03-23T21:14:51.139Z,29.27
2019-03-23T21:17:19.716Z,29.83
2019-03-23T21:19:48.339Z,28.63
2019-03-23T21:22:17.171Z,28.33
2019-03-23T21:24:45.747Z,31.67
2019-03-23T21:27:14.387Z,30.07
2019-03-23T21:29:43.460Z,31.60
2019-03-23T21:32:12.179Z,30.33
2019-03-23T21:34:40.810Z,29.50
2019-03-23T21:37:09.559Z,29.90
2019-03-23T21:39:38.241Z,30.93
2019-03-23T21:42:06.941Z,30.57
2019-03-23T21:44:35.774Z,29.87
2019-03-23T21:47:04.510Z,28.83
2019-03-23T21:49:33.091Z,29.77
2019-03-23T21:52:01.844Z,31.13
2019-03-23T21:54:30.571Z,29.10
2019-03-23T21:56:59.381Z,29.10
2019-03-23T21:59:28.194Z,29.20
2019-03-23T22:01:56.838Z,30.17
2019-03-23T22:04:25.489Z,29.87
2019-03-23T22:06:54.546Z,31.60
2019-03-23T22:09:23.211Z,29.40
2019-03-23T22:11:51.971Z,30.33
2019-03-23T22:14:20.738Z,29.27
2019-03-23T22:16:49.446Z,30.67
2019-03-23T22:19:18.097Z,28.47
2019-03-23T22:21:46.940Z,29.00
2019-03-23T22:24:15.656Z,27.97
2019-03-23T22:26:44.373Z,28.23
2019-03-23T22:29:13.049Z,27.83
2019-03-23T22:31:41.774Z,30.20
2019-03-23T22:34:10.423Z,30.80
2019-03-23T22:36:39.206Z,30.30
2019-03-23T22:39:07.916Z,28.83
2019-03-23T22:41:36.582Z,29.30
2019-03-23T22:44:05.323Z,31.40
2019-03-23T22:46:34.279Z,32.40
2019-03-23T22:49:03.102Z,30.23
2019-03-23T22:51:31.699Z,29.53
2019-03-23T22:54:00.344Z,29.50
2019-03-23T22:56:29.034Z,29.53
2019-03-23T22:58:57.713Z,30.43
2019-03-23T23:01:26.442Z,30.17
2019-03-23T23:03:55.078Z,29.97
2019-03-23T23:06:23.824Z,30.80
2019-03-23T23:08:52.857Z,30.43
2019-03-23T23:11:21.503Z,29.17
2019-03-23T23:13:50.133Z,30.13
2019-03-23T23:16:18.820Z,31.13
2019-03-23T23:18:47.479Z,31.67
2019-03-23T23:21:16.270Z,32.93
2019-03-23T23:23:44.852Z,33.87
2019-03-23T23:26:13.479Z,34.40
2019-03-23T23:28:42.092Z,29.37
2019-03-23T23:31:10.687Z,31.90
2019-03-23T23:33:39.804Z,31.20
2019-03-23T23:36:08.502Z,30.03
2019-03-23T23:38:37.149Z,31.93
2019-03-23T23:41:05.882Z,29.13
2019-03-23T23:43:34.458Z,30.03
2019-03-23T23:46:03.287Z,32.47
2019-03-23T23:48:31.994Z,30.87
2019-03-23T23:51:00.583Z,29.93
2019-03-23T23:53:29.336Z,31.33
2019-03-23T23:55:57.956Z,28.73
2019-03-23T23:58:26.637Z,29.73
